Time;durP1;ratioP1;P1;durP2;ratioP2;P2;SDS_P1;SDS_P2;PMS_P1;PMS_P2;Temp;Humidity;BMP_temperature;BMP_pressure;BME280_temperature;BME280_humidity;BME280_pressure;Samples;Min_cycle;Max_cycle;Signal;HPM_P1;HPM_P2
2021/12/29 00:00:35;;;;;;;26.08;5.53;;;;;;;8.52;100.00;100196.06;5076012;28;20033;-79
2021/12/29 00:03:01;;;;;;;19.73;5.43;;;;;;;8.57;100.00;100215.38;5074665;28;20056;-79
2021/12/29 00:05:28;;;;;;;33.42;5.65;;;;;;;8.56;100.00;100218.84;5073308;28;20028;-79
2021/12/29 00:07:53;;;;;;;25.98;5.65;;;;;;;8.55;100.00;100222.34;5075773;28;20024;-79
2021/12/29 00:10:20;;;;;;;25.80;5.78;;;;;;;8.55;100.00;100219.72;5075362;28;20043;-79
2021/12/29 00:12:51;;;;;;;26.10;5.93;;;;;;;8.54;100.00;100218.84;5076130;28;20039;-79
2021/12/29 00:15:19;;;;;;;24.42;5.35;;;;;;;8.57;100.00;100228.50;5074711;28;20385;-79
2021/12/29 00:17:45;;;;;;;26.88;5.78;;;;;;;8.55;100.00;100223.22;5067236;28;20358;-79
2021/12/29 00:20:14;;;;;;;18.05;4.68;;;;;;;8.59;100.00;100246.00;5076199;28;20107;-80
2021/12/29 00:22:40;;;;;;;17.73;6.13;;;;;;;8.60;100.00;100252.16;5075657;28;20043;-79
2021/12/29 00:25:06;;;;;;;22.95;5.07;;;;;;;8.60;100.00;100257.41;5074990;28;20032;-79
2021/12/29 00:27:31;;;;;;;18.70;5.97;;;;;;;8.63;100.00;100246.06;5075099;28;20032;-78
2021/12/29 00:29:58;;;;;;;19.95;5.47;;;;;;;8.63;100.00;100257.44;5070249;28;20492;-79
2021/12/29 00:32:24;;;;;;;18.90;4.78;;;;;;;8.62;100.00;100260.91;5073945;28;20041;-79
2021/12/29 00:34:49;;;;;;;14.43;4.22;;;;;;;8.62;100.00;100257.44;5075843;28;20538;-79
2021/12/29 00:37:15;;;;;;;29.25;5.53;;;;;;;8.62;100.00;100260.91;5074205;28;20054;-79
2021/12/29 00:39:40;;;;;;;25.80;4.93;;;;;;;8.63;100.00;100265.31;5074976;28;20028;-79
2021/12/29 00:42:06;;;;;;;23.98;6.65;;;;;;;8.63;100.00;100270.56;5071602;28;20389;-79
2021/12/29 00:44:33;;;;;;;15.80;3.70;;;;;;;8.60;100.00;100270.53;5072163;28;20166;-79
2021/12/29 00:47:00;;;;;;;24.88;4.25;;;;;;;8.63;100.00;100273.19;5072065;28;20021;-80
2021/12/29 00:49:37;;;;;;;18.30;4.50;;;;;;;8.65;100.00;100273.19;5074539;28;20032;-79
2021/12/29 00:52:05;;;;;;;16.05;3.88;;;;;;;8.63;100.00;100274.91;5074756;28;20093;-79
2021/12/29 00:54:32;;;;;;;25.48;4.13;;;;;;;8.63;100.00;100273.19;5067534;28;20040;-79
2021/12/29 00:56:57;;;;;;;11.63;3.58;;;;;;;8.64;100.00;100285.44;5066933;28;20029;-80
2021/12/29 00:59:24;;;;;;;14.73;3.42;;;;;;;8.62;100.00;100295.00;5056843;28;20033;-79
2021/12/29 01:01:53;;;;;;;19.92;3.13;;;;;;;8.61;100.00;100295.88;5067792;28;20468;-78
2021/12/29 01:04:19;;;;;;;15.65;2.78;;;;;;;8.61;100.00;100306.34;5066066;28;20024;-79
2021/12/29 01:06:46;;;;;;;17.60;3.33;;;;;;;8.62;100.00;100313.38;5074570;28;20099;-79
2021/12/29 01:09:13;;;;;;;9.93;2.70;;;;;;;8.62;100.00;100336.97;5057459;28;20447;-79
2021/12/29 01:11:39;;;;;;;8.68;2.78;;;;;;;8.66;100.00;100330.91;5073407;28;20047;-79
2021/12/29 01:14:07;;;;;;;11.93;3.03;;;;;;;8.66;100.00;100335.28;5063378;28;20032;-78
2021/12/29 01:19:00;;;;;;;21.35;4.03;;;;;;;8.63;100.00;100335.22;5067343;28;20044;-79
2021/12/29 01:21:34;;;;;;;10.95;3.25;;;;;;;8.62;100.00;100336.97;5058843;28;20036;-79
2021/12/29 01:24:00;;;;;;;23.63;2.97;;;;;;;8.63;100.00;100346.63;5061051;28;20033;-80
2021/12/29 01:26:26;;;;;;;16.73;2.90;;;;;;;8.64;100.00;100352.72;5058350;28;20028;-79
2021/12/29 01:28:51;;;;;;;14.98;3.00;;;;;;;8.60;100.00;100357.06;5064847;28;20035;-78
2021/12/29 01:31:18;;;;;;;11.40;2.90;;;;;;;8.62;100.00;100372.81;5071466;28;20052;-79
2021/12/29 01:33:43;;;;;;;14.50;2.60;;;;;;;8.61;100.00;100374.53;5058953;28;20033;-79
2021/12/29 01:36:10;;;;;;;13.88;3.78;;;;;;;8.63;100.00;100378.09;5065060;28;20055;-79
2021/12/29 01:38:35;;;;;;;11.98;2.83;;;;;;;8.64;100.00;100369.38;5068789;28;20078;-79
2021/12/29 01:41:02;;;;;;;20.73;3.53;;;;;;;8.63;100.00;100370.22;5073248;28;20045;-79
2021/12/29 01:43:27;;;;;;;13.38;3.50;;;;;;;8.63;100.00;100372.84;5073028;28;20016;-79
2021/12/29 01:45:54;;;;;;;14.25;3.22;;;;;;;8.62;100.00;100386.81;5057763;28;20097;-78
2021/12/29 01:48:26;;;;;;;10.63;2.90;;;;;;;8.60;100.00;100394.66;5071460;28;20056;-79
2021/12/29 01:50:52;;;;;;;12.18;2.58;;;;;;;8.61;100.00;100398.16;5071229;28;20037;-79
2021/12/29 01:53:25;;;;;;;16.30;2.80;;;;;;;8.55;100.00;100390.19;5054354;28;20111;-79
2021/12/29 01:55:52;;;;;;;10.10;2.28;;;;;;;8.56;100.00;100403.31;5068057;28;20032;-79
2021/12/29 01:58:19;;;;;;;11.02;2.95;;;;;;;8.56;100.00;100400.69;5066093;28;20052;-78
2021/12/29 02:00:53;;;;;;;17.77;2.78;;;;;;;8.54;100.00;100410.25;5069750;28;20089;-78
2021/12/29 02:03:19;;;;;;;15.55;3.47;;;;;;;8.51;100.00;100404.09;5058494;28;20032;-78
2021/12/29 02:05:45;;;;;;;13.70;3.65;;;;;;;8.50;100.00;100412.81;5064879;28;20469;-79
2021/12/29 02:08:11;;;;;;;15.85;3.50;;;;;;;8.48;100.00;100415.41;5074587;28;20024;-79
2021/12/29 02:10:44;;;;;;;12.85;3.70;;;;;;;8.47;100.00;100418.00;5069673;28;20063;-79
2021/12/29 02:13:13;;;;;;;13.95;4.15;;;;;;;8.46;100.00;100424.09;5071243;28;20028;-77
2021/12/29 02:15:40;;;;;;;17.63;3.85;;;;;;;8.42;100.00;100418.78;5062762;28;20411;-79
2021/12/29 02:18:15;;;;;;;20.63;4.40;;;;;;;8.45;100.00;100423.25;5065421;28;20020;-80
2021/12/29 02:20:48;;;;;;;28.48;4.45;;;;;;;8.42;100.00;100416.16;5060583;28;20040;-78
2021/12/29 02:23:26;;;;;;;22.95;5.32;;;;;;;8.42;100.00;100431.91;5060446;28;20012;-78
2021/12/29 02:25:56;;;;;;;25.47;5.80;;;;;;;8.43;100.00;100438.00;5072666;28;20507;-77
2021/12/29 02:28:26;;;;;;;25.23;6.20;;;;;;;8.41;100.00;100430.13;5078549;28;20681;-77
2021/12/29 02:30:55;;;;;;;22.10;6.80;;;;;;;8.43;100.00;100423.16;5072254;28;20040;-78
2021/12/29 02:33:21;;;;;;;26.83;6.50;;;;;;;8.40;100.00;100423.09;5059058;28;20029;-78
2021/12/29 02:35:47;;;;;;;22.05;6.57;;;;;;;8.42;100.00;100418.78;5063789;28;20170;-78
2021/12/29 02:38:30;;;;;;;18.27;7.18;;;;;;;8.41;100.00;100430.13;5069492;28;20033;-78
2021/12/29 02:41:05;;;;;;;31.63;8.20;;;;;;;8.40;100.00;100436.22;5060581;28;20072;-77
2021/12/29 02:43:32;;;;;;;31.67;9.05;;;;;;;8.40;100.00;100446.69;5063154;28;20025;-78
2021/12/29 02:45:59;;;;;;;35.17;8.55;;;;;;;8.42;100.00;100451.97;5071623;28;20099;-78
2021/12/29 02:48:34;;;;;;;42.53;10.82;;;;;;;8.42;100.00;100447.63;5073381;28;20468;-78
2021/12/29 02:51:01;;;;;;;42.53;9.95;;;;;;;8.43;100.00;100466.84;5072580;28;20028;-78
2021/12/29 02:53:28;;;;;;;30.05;9.55;;;;;;;8.42;100.00;100467.69;5069848;28;20096;-77
2021/12/29 02:55:54;;;;;;;40.28;10.32;;;;;;;8.39;100.00;100468.50;5058887;28;20044;-77
2021/12/29 02:58:24;;;;;;;33.80;9.38;;;;;;;8.38;100.00;100474.63;5073012;28;20394;-78
2021/12/29 03:00:53;;;;;;;22.45;7.47;;;;;;;8.43;100.00;100472.09;5065739;28;20033;-78
2021/12/29 03:03:20;;;;;;;30.05;7.22;;;;;;;8.41;100.00;100481.66;5071553;28;20028;-78
2021/12/29 03:05:46;;;;;;;31.45;6.70;;;;;;;8.39;100.00;100483.38;5076811;28;20028;-78
2021/12/29 03:08:14;;;;;;;36.42;7.38;;;;;;;8.39;100.00;100489.50;5076128;28;20040;-78
2021/12/29 03:10:42;;;;;;;26.92;7.03;;;;;;;8.36;100.00;100499.94;5073817;28;20047;-78
2021/12/29 03:13:08;;;;;;;28.90;7.97;;;;;;;8.38;100.00;100497.34;5072396;28;20030;-78
2021/12/29 03:15:35;;;;;;;29.90;7.40;;;;;;;8.39;100.00;100507.84;5071629;28;20040;-78
2021/12/29 03:18:03;;;;;;;42.33;9.02;;;;;;;8.40;100.00;100508.75;5055844;28;20044;-78
2021/12/29 03:20:30;;;;;;;34.47;9.68;;;;;;;8.39;100.00;100514.84;5057737;28;20558;-78
2021/12/29 03:22:56;;;;;;;31.50;9.60;;;;;;;8.38;100.00;100519.22;5063937;28;20214;-78
2021/12/29 03:25:23;;;;;;;39.60;10.75;;;;;;;8.38;100.00;100513.97;5062571;28;20028;-79
2021/12/29 03:27:49;;;;;;;35.35;11.13;;;;;;;8.37;100.00;100521.78;5068511;28;20472;-79
2021/12/29 03:30:15;;;;;;;30.15;8.57;;;;;;;8.37;100.00;100516.53;5061915;28;20082;-78
2021/12/29 03:32:48;;;;;;;44.00;9.60;;;;;;;8.34;100.00;100520.00;5074753;28;20032;-78
2021/12/29 03:35:15;;;;;;;25.90;6.80;;;;;;;8.37;100.00;100527.91;5066584;28;20381;-78
2021/12/29 03:37:41;;;;;;;29.85;6.57;;;;;;;8.38;100.00;100534.94;5069044;28;20032;-78
2021/12/29 03:40:07;;;;;;;28.08;6.75;;;;;;;8.38;100.00;100547.16;5069107;28;20090;-79
2021/12/29 03:42:33;;;;;;;29.98;7.32;;;;;;;8.35;100.00;100545.34;5104224;28;20074;-79
2021/12/29 03:44:59;;;;;;;28.70;7.22;;;;;;;8.32;100.00;100549.66;5099331;28;20023;-79
2021/12/29 03:47:24;;;;;;;26.77;8.52;;;;;;;8.28;100.00;100554.81;5094234;28;20020;-78
2021/12/29 03:49:50;;;;;;;37.38;6.80;;;;;;;8.26;100.00;100550.38;5107608;28;20035;-78
2021/12/29 03:52:16;;;;;;;20.88;5.63;;;;;;;8.28;100.00;100553.94;5090287;28;20031;-78
2021/12/29 03:54:41;;;;;;;33.17;6.50;;;;;;;8.25;100.00;100553.88;5080507;28;20436;-77
2021/12/29 03:57:11;;;;;;;26.38;6.85;;;;;;;8.25;100.00;100552.13;5095824;28;20032;-78
2021/12/29 03:59:37;;;;;;;23.50;6.53;;;;;;;8.28;100.00;100557.44;5110518;28;20031;-79
2021/12/29 04:02:02;;;;;;;19.55;5.20;;;;;;;8.28;100.00;100561.81;5088972;28;20028;-78
2021/12/29 04:04:28;;;;;;;28.70;6.15;;;;;;;8.28;100.00;100565.28;5102802;28;20039;-78
2021/12/29 04:06:54;;;;;;;24.10;6.30;;;;;;;8.25;100.00;100559.13;5099316;28;20023;-77
2021/12/29 04:09:20;;;;;;;33.08;7.10;;;;;;;8.24;100.00;100554.72;5094085;28;20043;-77
2021/12/29 04:11:50;;;;;;;30.60;6.10;;;;;;;8.22;100.00;100551.16;5104251;28;20051;-78
2021/12/29 04:14:20;;;;;;;31.63;5.97;;;;;;;8.21;100.00;100557.28;5087072;28;20020;-78
2021/12/29 04:16:49;;;;;;;23.63;6.07;;;;;;;8.21;100.00;100557.28;5085955;28;20019;-78
2021/12/29 04:19:17;;;;;;;22.58;5.20;;;;;;;8.23;100.00;100550.31;5115024;28;20032;-78
2021/12/29 04:21:47;;;;;;;29.20;6.13;;;;;;;8.21;100.00;100550.31;5116767;28;20084;-77
2021/12/29 04:24:14;;;;;;;30.35;6.38;;;;;;;8.22;100.00;100569.53;5083899;28;20022;-77
2021/12/29 04:26:40;;;;;;;27.55;7.93;;;;;;;8.20;100.00;100577.34;5081890;28;20063;-77
2021/12/29 04:29:13;;;;;;;17.55;5.47;;;;;;;8.20;100.00;100572.13;5107481;28;20088;-78
2021/12/29 04:31:38;;;;;;;30.08;6.75;;;;;;;8.21;100.00;100571.28;5094327;28;20098;-78
2021/12/29 04:34:06;;;;;;;26.75;6.75;;;;;;;8.20;100.00;100579.09;5100453;28;20146;-78
2021/12/29 04:36:33;;;;;;;30.88;6.10;;;;;;;8.18;100.00;100584.31;5088435;28;20402;-79
2021/12/29 04:39:01;;;;;;;26.95;6.32;;;;;;;8.19;100.00;100590.44;5117724;28;20379;-79
2021/12/29 04:41:27;;;;;;;34.83;7.25;;;;;;;8.17;100.00;100605.25;5095377;28;20533;-79
2021/12/29 04:43:53;;;;;;;21.55;6.72;;;;;;;8.16;100.00;100603.47;5104719;28;20041;-79
2021/12/29 04:46:26;;;;;;;24.50;7.00;;;;;;;8.12;100.00;100605.13;5092389;28;20031;-79
2021/12/29 04:48:58;;;;;;;19.80;5.85;;;;;;;8.17;100.00;100613.13;5093330;28;20610;-78
2021/12/29 04:51:32;;;;;;;33.17;7.10;;;;;;;8.12;100.00;100606.88;5117716;28;20399;-78
2021/12/29 04:53:58;;;;;;;33.13;7.28;;;;;;;8.14;100.00;100618.25;5107364;28;20051;-79
2021/12/29 04:56:23;;;;;;;34.30;7.72;;;;;;;8.14;100.00;100618.25;5092549;28;20085;-78
2021/12/29 04:58:49;;;;;;;26.25;7.47;;;;;;;8.14;100.00;100620.88;5116915;28;20031;-79
2021/12/29 05:01:16;;;;;;;30.92;7.32;;;;;;;8.15;100.00;100612.19;5110437;28;20016;-78
2021/12/29 05:03:44;;;;;;;32.58;7.43;;;;;;;8.14;100.00;100613.03;5110165;28;20080;-78
2021/12/29 05:08:35;;;;;;;28.23;8.02;;;;;;;8.14;100.00;100628.75;5096220;28;20051;-78
2021/12/29 05:11:05;;;;;;;30.45;8.10;;;;;;;8.13;100.00;100632.25;5096359;28;20035;-78
2021/12/29 05:13:37;;;;;;;27.13;7.68;;;;;;;8.09;100.00;100620.78;5096012;28;20036;-78
2021/12/29 05:16:03;;;;;;;37.03;9.60;;;;;;;8.10;100.00;100628.69;5108096;28;20087;-78
2021/12/29 05:18:31;;;;;;;21.98;9.02;;;;;;;8.10;100.00;100622.56;5104670;28;20440;-78
2021/12/29 05:20:59;;;;;;;23.58;8.90;;;;;;;8.10;100.00;100623.44;5081172;28;20031;-77
2021/12/29 05:23:28;;;;;;;21.38;8.68;;;;;;;8.10;100.00;100627.81;5114394;28;20497;-78
2021/12/29 05:25:54;;;;;;;34.67;9.45;;;;;;;8.10;100.00;100633.06;5096564;28;20498;-78
2021/12/29 05:28:23;;;;;;;25.45;7.32;;;;;;;8.07;100.00;100623.38;5078287;28;20032;-78
2021/12/29 05:30:49;;;;;;;19.17;6.85;;;;;;;8.08;100.00;100624.25;5082372;28;20047;-78
2021/12/29 05:33:17;;;;;;;22.70;7.38;;;;;;;8.08;100.00;100630.41;5093177;28;20024;-79
2021/12/29 05:35:45;;;;;;;27.70;8.48;;;;;;;8.08;100.00;100629.50;5089671;28;20038;-78
2021/12/29 05:38:11;;;;;;;21.02;8.90;;;;;;;8.07;100.00;100628.63;5114429;28;20088;-78
2021/12/29 05:40:36;;;;;;;18.90;6.60;;;;;;;8.07;100.00;100631.25;5095784;28;20028;-79
2021/12/29 05:43:06;;;;;;;26.13;7.85;;;;;;;8.07;100.00;100623.38;5080073;28;20024;-79
2021/12/29 05:45:33;;;;;;;18.55;7.80;;;;;;;8.09;100.00;100629.53;5096826;28;20039;-79
2021/12/29 05:47:59;;;;;;;24.77;7.60;;;;;;;8.13;100.00;100640.09;5110674;28;20115;-79
2021/12/29 05:50:26;;;;;;;25.65;8.07;;;;;;;8.14;100.00;100629.66;5109075;28;20536;-79
2021/12/29 05:52:53;;;;;;;18.38;7.43;;;;;;;8.13;100.00;100632.25;5090647;28;20040;-79
2021/12/29 05:55:19;;;;;;;19.70;8.10;;;;;;;8.16;100.00;100642.78;5096998;28;20028;-79
2021/12/29 05:57:44;;;;;;;23.38;8.05;;;;;;;8.12;100.00;100647.06;5109099;28;20062;-79
2021/12/29 06:00:15;;;;;;;22.98;7.45;;;;;;;8.11;100.00;100640.03;5093856;28;20053;-79
2021/12/29 06:02:41;;;;;;;19.58;7.90;;;;;;;8.09;100.00;100647.88;5088998;28;20024;-79
2021/12/29 06:05:08;;;;;;;20.42;8.00;;;;;;;8.08;100.00;100645.22;5094656;28;20035;-79
2021/12/29 06:07:35;;;;;;;26.40;8.32;;;;;;;8.08;100.00;100648.75;5115961;28;20049;-78
2021/12/29 06:10:01;;;;;;;15.95;6.63;;;;;;;8.09;100.00;100647.88;5067335;28;20426;-79
2021/12/29 06:12:26;;;;;;;21.10;7.25;;;;;;;8.08;100.00;100653.09;5086707;28;20114;-79
2021/12/29 06:14:55;;;;;;;18.73;6.85;;;;;;;8.10;100.00;100657.50;5086233;28;20546;-79
2021/12/29 06:17:21;;;;;;;17.98;6.55;;;;;;;8.08;100.00;100659.22;5106566;28;20396;-79
2021/12/29 06:19:46;;;;;;;18.20;6.45;;;;;;;8.08;100.00;100656.63;5084189;28;20020;-79
2021/12/29 06:22:12;;;;;;;18.30;6.57;;;;;;;8.05;100.00;100658.25;5085364;28;20060;-79
2021/12/29 06:24:40;;;;;;;19.30;6.72;;;;;;;8.07;100.00;100659.16;5107324;28;20349;-79
2021/12/29 06:27:06;;;;;;;21.90;6.40;;;;;;;8.05;100.00;100646.03;5078840;28;20028;-79
2021/12/29 06:29:32;;;;;;;17.73;6.75;;;;;;;8.06;100.00;100652.19;5095155;28;20032;-79
2021/12/29 06:31:58;;;;;;;20.52;6.70;;;;;;;8.06;100.00;100663.53;5104249;28;20091;-79
2021/12/29 06:34:23;;;;;;;22.05;6.68;;;;;;;8.06;100.00;100666.16;5096632;28;20065;-79
2021/12/29 06:36:49;;;;;;;35.95;6.22;;;;;;;8.06;100.00;100667.91;5098496;28;20028;-79
2021/12/29 06:39:14;;;;;;;21.17;6.75;;;;;;;8.05;100.00;100667.00;5079863;28;20024;-78
2021/12/29 06:41:40;;;;;;;20.77;7.35;;;;;;;8.06;100.00;100667.91;5108371;28;20040;-79
2021/12/29 06:44:07;;;;;;;21.75;7.10;;;;;;;8.06;100.00;100673.16;5087978;28;20032;-79
2021/12/29 06:46:34;;;;;;;21.83;8.35;;;;;;;8.04;100.00;100669.59;5084740;28;20026;-79
2021/12/29 06:49:00;;;;;;;19.70;5.95;;;;;;;8.04;100.00;100678.31;5078062;28;20040;-78
2021/12/29 06:51:27;;;;;;;18.75;6.07;;;;;;;8.04;100.00;100670.47;5100046;28;20047;-78
2021/12/29 06:53:54;;;;;;;20.65;5.63;;;;;;;8.04;100.00;100680.94;5110499;28;20445;-79
2021/12/29 06:56:19;;;;;;;11.68;5.45;;;;;;;8.06;100.00;100681.88;5094014;28;20059;-79
2021/12/29 06:58:45;;;;;;;11.65;5.38;;;;;;;8.03;100.00;100686.16;5091769;28;20400;-78
2021/12/29 07:01:13;;;;;;;9.90;5.05;;;;;;;8.06;100.00;100689.75;5098116;28;20097;-78
2021/12/29 07:03:39;;;;;;;11.25;4.10;;;;;;;8.07;100.00;100686.28;5089908;28;20024;-79
2021/12/29 07:06:04;;;;;;;20.45;5.38;;;;;;;8.04;100.00;100691.41;5104516;28;20104;-79
2021/12/29 07:08:31;;;;;;;12.18;5.10;;;;;;;8.01;100.00;100696.59;5104661;28;20019;-78
2021/12/29 07:10:58;;;;;;;21.08;5.07;;;;;;;8.03;100.00;100701.88;5113268;28;20097;-78
2021/12/29 07:13:23;;;;;;;10.25;4.45;;;;;;;8.03;100.00;100709.72;5084978;28;20114;-79
2021/12/29 07:15:49;;;;;;;16.05;5.00;;;;;;;8.02;100.00;100714.09;5119360;28;20104;-78
2021/12/29 07:18:20;;;;;;;10.38;4.97;;;;;;;8.02;100.00;100726.31;5098949;28;20032;-79
2021/12/29 07:20:46;;;;;;;13.90;5.50;;;;;;;8.01;100.00;100725.41;5098557;28;20031;-79
2021/12/29 07:23:12;;;;;;;19.27;6.30;;;;;;;8.01;100.00;100728.03;5113613;28;20047;-79
2021/12/29 07:25:38;;;;;;;14.07;6.72;;;;;;;8.04;100.00;100727.25;5097553;28;20035;-79
2021/12/29 07:28:09;;;;;;;15.15;6.38;;;;;;;8.02;100.00;100727.19;5099372;28;20052;-78
2021/12/29 07:30:39;;;;;;;17.67;7.13;;;;;;;8.02;100.00;100732.44;5097220;28;20031;-78
2021/12/29 07:33:05;;;;;;;15.60;7.03;;;;;;;8.05;100.00;100718.53;5108829;28;20490;-79
2021/12/29 07:35:32;;;;;;;18.58;7.18;;;;;;;8.08;100.00;100713.34;5100619;28;20032;-78
2021/12/29 07:37:57;;;;;;;24.10;7.82;;;;;;;8.07;100.00;100717.72;5086593;28;20023;-78
2021/12/29 07:40:22;;;;;;;16.58;7.30;;;;;;;8.06;100.00;100721.19;5086775;28;20027;-78
2021/12/29 07:42:48;;;;;;;23.48;8.55;;;;;;;8.08;100.00;100722.13;5092680;28;20468;-78
2021/12/29 07:45:15;;;;;;;20.10;6.88;;;;;;;8.09;100.00;100713.41;5089867;28;20028;-79
2021/12/29 07:47:47;;;;;;;26.88;8.73;;;;;;;8.07;100.00;100704.63;5108348;28;20111;-80
2021/12/29 07:50:21;;;;;;;20.42;7.57;;;;;;;8.07;100.00;100712.47;5101625;28;20024;-80
2021/12/29 07:52:48;;;;;;;22.50;8.63;;;;;;;8.05;100.00;100703.69;5077557;28;20041;-79
2021/12/29 07:55:17;;;;;;;21.25;8.70;;;;;;;8.04;100.00;100707.16;5088838;28;20034;-78
2021/12/29 07:57:42;;;;;;;21.30;8.10;;;;;;;8.05;100.00;100701.06;5113458;28;20032;-78
2021/12/29 08:00:10;;;;;;;19.05;8.50;;;;;;;8.03;100.00;100705.41;5099246;28;20039;-79
2021/12/29 08:02:37;;;;;;;26.25;8.27;;;;;;;8.07;100.00;100707.25;5081088;28;20452;-78
2021/12/29 08:05:07;;;;;;;21.08;9.07;;;;;;;8.08;100.00;100713.34;5086035;28;20027;-78
2021/12/29 08:07:34;;;;;;;25.33;8.82;;;;;;;8.09;100.00;100710.78;5090501;28;20040;-79
2021/12/29 08:10:00;;;;;;;18.95;8.93;;;;;;;8.07;100.00;100717.72;5099329;28;20035;-79
2021/12/29 08:12:33;;;;;;;19.80;9.63;;;;;;;8.08;100.00;100719.50;5091191;28;20390;-78
2021/12/29 08:15:23;;;;;;;21.88;10.27;;;;;;;8.07;100.00;100717.72;5090938;28;20044;-78
2021/12/29 08:17:49;;;;;;;17.05;8.77;;;;;;;8.06;100.00;100715.06;5102601;28;20058;-78
2021/12/29 08:20:23;;;;;;;21.98;10.02;;;;;;;8.08;100.00;100730.00;5090026;28;20363;-78
2021/12/29 08:22:55;;;;;;;26.60;9.60;;;;;;;8.07;100.00;100722.97;5089908;28;20023;-79
2021/12/29 08:25:39;;;;;;;28.80;9.18;;;;;;;8.05;100.00;100715.91;5092959;28;20062;-78
2021/12/29 08:28:05;;;;;;;23.10;10.00;;;;;;;8.05;100.00;100714.16;5088054;28;20485;-77
2021/12/29 08:30:31;;;;;;;19.92;9.10;;;;;;;8.04;100.00;100711.50;5114946;28;20034;-75
2021/12/29 08:32:56;;;;;;;23.08;9.30;;;;;;;8.04;100.00;100722.88;5113989;28;20032;-75
2021/12/29 08:35:22;;;;;;;19.33;9.73;;;;;;;8.04;100.00;100722.88;5095957;28;20065;-75
2021/12/29 08:37:50;;;;;;;20.40;9.55;;;;;;;8.04;100.00;100743.84;5092216;28;20507;-75
2021/12/29 08:40:16;;;;;;;21.55;9.63;;;;;;;8.06;100.00;100742.16;5111884;28;20035;-78
2021/12/29 08:42:42;;;;;;;19.58;9.38;;;;;;;8.05;100.00;100734.25;5109300;28;20123;-78
2021/12/29 08:45:34;;;;;;;21.08;10.10;;;;;;;8.03;100.00;100726.38;5099508;28;20031;-78
2021/12/29 08:48:00;;;;;;;19.83;9.50;;;;;;;8.04;100.00;100728.09;5110220;28;20028;-78
2021/12/29 08:50:31;;;;;;;16.40;9.52;;;;;;;8.02;100.00;100729.81;5108197;28;20028;-78
2021/12/29 08:53:08;;;;;;;17.63;9.55;;;;;;;8.00;100.00;100723.63;5104100;28;20019;-78
2021/12/29 08:55:51;;;;;;;19.60;8.60;;;;;;;8.01;100.00;100721.94;5090514;28;20035;-78
2021/12/29 08:58:27;;;;;;;24.33;9.57;;;;;;;7.98;100.00;100722.72;5100963;28;20020;-79
2021/12/29 09:01:00;;;;;;;23.50;9.20;;;;;;;7.93;100.00;100713.88;5107658;28;20445;-78
2021/12/29 09:03:51;;;;;;;23.10;8.73;;;;;;;7.89;100.00;100712.03;5102256;28;20020;-79
2021/12/29 09:06:19;;;;;;;16.27;8.85;;;;;;;7.88;100.00;100703.28;5080355;28;20053;-79
2021/12/29 09:08:54;;;;;;;25.98;9.30;;;;;;;7.88;100.00;100716.38;5102544;28;20032;-79
2021/12/29 09:11:26;;;;;;;12.13;8.00;;;;;;;7.90;100.00;100716.41;5111988;28;20039;-79
2021/12/29 09:13:54;;;;;;;16.17;8.23;;;;;;;7.90;100.00;100711.19;5091958;28;20045;-79
2021/12/29 09:16:20;;;;;;;17.75;8.48;;;;;;;7.90;100.00;100713.78;5103106;28;20039;-80
2021/12/29 09:18:46;;;;;;;22.30;10.00;;;;;;;7.90;100.00;100703.31;5099577;28;20028;-78
2021/12/29 09:21:15;;;;;;;29.05;8.60;;;;;;;7.96;100.00;100698.22;5082548;28;20019;-79
2021/12/29 09:23:42;;;;;;;17.40;8.10;;;;;;;8.01;100.00;100696.59;5111130;28;20047;-79
2021/12/29 09:26:11;;;;;;;19.17;9.38;;;;;;;8.07;100.00;100701.09;5087163;28;20468;-78
2021/12/29 09:28:38;;;;;;;20.30;9.73;;;;;;;8.12;100.00;100706.47;5097489;28;20085;-78
2021/12/29 09:31:07;;;;;;;24.92;10.38;;;;;;;8.17;100.00;100715.34;5096376;28;20097;-78
2021/12/29 09:33:41;;;;;;;26.50;9.85;;;;;;;8.27;100.00;100719.94;5105899;28;20043;-77
2021/12/29 09:36:10;;;;;;;20.13;9.52;;;;;;;8.30;100.00;100724.38;5090425;28;20371;-78
2021/12/29 09:38:40;;;;;;;24.77;10.65;;;;;;;8.32;100.00;100722.69;5068226;28;20023;-77
2021/12/29 09:41:08;;;;;;;17.92;8.43;;;;;;;8.36;100.00;100716.66;5100801;28;20093;-78
2021/12/29 09:43:37;;;;;;;20.60;9.43;;;;;;;8.35;100.00;100718.38;5106699;28;20047;-76
2021/12/29 09:46:05;;;;;;;21.35;8.68;;;;;;;8.32;100.00;100707.81;5098284;28;20046;-76
2021/12/29 09:48:30;;;;;;;16.73;8.57;;;;;;;8.32;100.00;100702.59;5115423;28;20475;-76
2021/12/29 09:50:58;;;;;;;18.60;8.60;;;;;;;8.28;100.00;100695.50;5104423;28;20024;-76
2021/12/29 09:53:24;;;;;;;16.63;7.38;;;;;;;8.25;100.00;100691.06;5089578;28;20028;-75
2021/12/29 09:55:54;;;;;;;21.73;7.78;;;;;;;8.26;100.00;100686.69;5103342;28;20031;-78
2021/12/29 09:58:23;;;;;;;13.63;7.75;;;;;;;8.30;100.00;100690.28;5099218;28;20031;-73
2021/12/29 10:00:54;;;;;;;13.38;7.80;;;;;;;8.26;100.00;100686.69;5108411;28;20035;-75
2021/12/29 10:03:21;;;;;;;16.38;8.52;;;;;;;8.28;100.00;100685.00;5102129;28;20407;-72
2021/12/29 10:05:49;;;;;;;15.52;7.30;;;;;;;8.25;100.00;100679.72;5082985;28;20035;-72
2021/12/29 10:08:19;;;;;;;19.92;8.02;;;;;;;8.26;100.00;100670.97;5090623;28;20066;-72
2021/12/29 10:10:50;;;;;;;11.82;6.95;;;;;;;8.31;100.00;100671.09;5099825;28;20077;-73
2021/12/29 10:13:16;;;;;;;15.43;7.75;;;;;;;8.33;100.00;100669.38;5109550;28;20360;-73
2021/12/29 10:15:46;;;;;;;17.70;8.02;;;;;;;8.31;100.00;100661.47;5092350;28;20739;-73
2021/12/29 10:18:15;;;;;;;13.52;7.45;;;;;;;8.30;100.00;100657.06;5082208;28;20383;-72
2021/12/29 10:20:54;;;;;;;12.02;7.47;;;;;;;8.34;100.00;100664.19;5089368;28;20635;-72
2021/12/29 10:23:31;;;;;;;11.98;7.03;;;;;;;8.27;100.00;100660.53;5101310;28;20023;-73
2021/12/29 10:26:11;;;;;;;14.80;6.88;;;;;;;8.28;100.00;100659.66;5076937;28;20031;-72
2021/12/29 10:28:45;;;;;;;17.13;8.05;;;;;;;8.28;100.00;100659.66;5094564;28;20027;-72
2021/12/29 10:31:20;;;;;;;14.88;6.15;;;;;;;8.30;100.00;100651.84;5096657;28;20455;-72
2021/12/29 10:33:50;;;;;;;14.93;6.43;;;;;;;8.37;100.00;100658.09;5103917;28;20023;-72
2021/12/29 10:36:18;;;;;;;13.25;6.70;;;;;;;8.37;100.00;100663.34;5082345;28;20032;-73
2021/12/29 10:38:47;;;;;;;12.10;6.50;;;;;;;8.38;100.00;100660.78;5101114;28;20084;-73
2021/12/29 10:41:12;;;;;;;18.05;6.78;;;;;;;8.41;100.00;100666.09;5075672;28;20569;-72
2021/12/29 10:43:48;;;;;;;14.93;6.95;;;;;;;8.41;100.00;100671.34;5077238;28;20104;-72
2021/12/29 10:46:21;;;;;;;10.60;6.88;;;;;;;8.43;100.00;100684.47;5065702;28;20473;-72
2021/12/29 10:48:51;;;;;;;24.98;6.95;;;;;;;8.48;100.00;100677.63;5058337;28;20028;-71
2021/12/29 10:51:18;;;;;;;16.67;6.45;;;;;;;8.52;100.00;100681.19;5086374;28;20035;-72
2021/12/29 10:53:44;;;;;;;12.40;6.47;;;;;;;8.49;100.00;100668.03;5063864;28;20480;-72
2021/12/29 10:56:25;;;;;;;13.77;6.63;;;;;;;8.42;100.00;100662.63;5091823;28;20032;-72
2021/12/29 10:58:53;;;;;;;10.88;6.97;;;;;;;8.38;100.00;100670.38;5070931;28;20029;-72
2021/12/29 11:01:22;;;;;;;16.00;6.93;;;;;;;8.36;100.00;100672.97;5056608;28;20041;-72
2021/12/29 11:03:59;;;;;;;15.38;7.50;;;;;;;8.36;100.00;100657.22;5063409;28;20083;-72
2021/12/29 11:06:26;;;;;;;18.98;7.72;;;;;;;8.36;100.00;100635.38;5088632;28;20042;-72
2021/12/29 11:08:59;;;;;;;17.45;7.82;;;;;;;8.34;100.00;100626.59;5089919;28;20111;-72
2021/12/29 11:11:41;;;;;;;17.17;8.67;;;;;;;8.32;100.00;100623.06;5073948;28;20444;-73
2021/12/29 11:14:12;;;;;;;19.65;8.48;;;;;;;8.31;100.00;100622.16;5066562;28;20294;-73
2021/12/29 11:16:39;;;;;;;14.40;8.35;;;;;;;8.34;100.00;100640.59;5072377;28;20032;-72
2021/12/29 11:19:05;;;;;;;13.52;7.60;;;;;;;8.37;100.00;100638.03;5069406;28;20043;-72
2021/12/29 11:21:35;;;;;;;21.63;9.02;;;;;;;8.39;100.00;100633.69;5075778;28;20448;-72
2021/12/29 11:24:20;;;;;;;16.75;8.10;;;;;;;8.43;100.00;100622.41;5074764;28;20028;-73
2021/12/29 11:26:49;;;;;;;17.63;8.40;;;;;;;8.45;100.00;100612.03;5074920;28;20024;-73